Time;durP1;ratioP1;P1;durP2;ratioP2;P2;SDS_P1;SDS_P2;PMS_P1;PMS_P2;Temp;Humidity;BMP_temperature;BMP_pressure;BME280_temperature;BME280_humidity;BME280_pressure;Samples;Min_cycle;Max_cycle;Signal;HPM_P1;HPM_P2
2023/12/21 00:01:24;;;;;;;1.40;0.63;;;11.10;99.90;;;;;;4965290;28;20047;-83
2023/12/21 00:03:51;;;;;;;2.50;0.82;;;11.10;99.90;;;;;;4965989;28;20141;-80
2023/12/21 00:06:18;;;;;;;2.35;0.70;;;11.10;99.90;;;;;;4966767;28;20047;-80
2023/12/21 00:08:46;;;;;;;0.80;0.60;;;11.10;99.90;;;;;;4963946;28;20111;-79
2023/12/21 00:11:13;;;;;;;1.92;1.10;;;11.10;99.90;;;;;;4934106;28;20058;-80
2023/12/21 00:13:40;;;;;;;0.75;0.57;;;11.10;99.90;;;;;;4949916;28;20446;-80
2023/12/21 00:16:07;;;;;;;1.10;0.80;;;11.10;99.90;;;;;;4949018;28;20051;-80
2023/12/21 00:18:34;;;;;;;0.98;0.50;;;11.10;99.90;;;;;;4948286;28;20085;-80
2023/12/21 00:21:01;;;;;;;0.93;0.60;;;11.10;99.90;;;;;;4965822;28;20054;-80
2023/12/21 00:23:27;;;;;;;1.25;0.73;;;11.10;99.90;;;;;;4948646;28;20055;-81
2023/12/21 00:25:54;;;;;;;1.98;0.70;;;11.10;99.90;;;;;;4962723;28;20503;-80
2023/12/21 00:28:22;;;;;;;0.73;0.50;;;11.00;99.90;;;;;;4962138;28;20051;-80
2023/12/21 00:30:49;;;;;;;2.65;1.23;;;11.00;99.90;;;;;;4964972;28;20050;-80
2023/12/21 00:33:17;;;;;;;2.55;0.85;;;11.00;1.00;;;;;;4962153;28;20393;-80
2023/12/21 00:35:44;;;;;;;1.70;0.73;;;11.00;1.00;;;;;;4962863;28;20691;-81
2023/12/21 00:38:11;;;;;;;1.15;0.75;;;10.90;1.00;;;;;;4948464;28;20089;-80
2023/12/21 00:40:38;;;;;;;2.47;0.80;;;10.90;1.00;;;;;;4966529;28;20051;-80
2023/12/21 00:43:05;;;;;;;1.25;0.70;;;10.90;1.00;;;;;;4966600;28;20134;-79
2023/12/21 00:45:33;;;;;;;1.45;0.63;;;10.90;1.00;;;;;;4964761;28;20070;-80
2023/12/21 00:48:00;;;;;;;1.90;0.75;;;10.90;1.00;;;;;;4944403;28;20592;-80
2023/12/21 00:50:27;;;;;;;3.15;0.90;;;10.90;1.00;;;;;;4946262;28;20171;-81
2023/12/21 00:52:54;;;;;;;3.97;0.90;;;10.90;1.00;;;;;;4945875;28;20051;-80
2023/12/21 00:55:21;;;;;;;2.17;1.05;;;10.90;1.00;;;;;;4946909;28;20110;-80
2023/12/21 00:57:47;;;;;;;3.42;1.02;;;10.90;1.00;;;;;;4948962;28;20047;-80
2023/12/21 01:00:15;;;;;;;1.88;0.82;;;10.90;1.00;;;;;;4933373;28;20055;-80
2023/12/21 01:02:41;;;;;;;1.63;0.80;;;10.90;1.00;;;;;;4962946;28;20150;-80
2023/12/21 01:05:08;;;;;;;1.27;0.70;;;11.00;1.00;;;;;;4961241;28;20617;-79
2023/12/21 01:07:35;;;;;;;2.47;0.80;;;10.90;10.40;;;;;;4953105;28;20043;-79
2023/12/21 01:10:03;;;;;;;2.30;0.90;;;11.00;24.00;;;;;;4949212;28;20051;-80
2023/12/21 01:12:32;;;;;;;1.52;0.80;;;11.00;30.90;;;;;;4964783;28;20307;-79
2023/12/21 01:15:00;;;;;;;2.15;1.10;;;11.00;30.80;;;;;;4964492;28;20050;-80
2023/12/21 01:17:27;;;;;;;2.92;1.38;;;11.00;38.00;;;;;;4963390;28;20098;-79
2023/12/21 01:19:54;;;;;;;2.22;0.80;;;11.00;40.30;;;;;;4948233;28;20483;-79
2023/12/21 01:22:21;;;;;;;0.90;0.60;;;11.00;62.50;;;;;;4964270;28;20047;-80
2023/12/21 01:24:48;;;;;;;1.67;0.73;;;11.00;67.60;;;;;;4965991;28;20050;-80
2023/12/21 01:27:15;;;;;;;2.30;1.10;;;11.00;66.70;;;;;;4964337;28;20066;-80
2023/12/21 01:29:57;;;;;;;2.43;1.00;;;11.10;57.60;;;;;;4964880;28;20113;-80
2023/12/21 01:32:24;;;;;;;2.85;0.80;;;11.10;33.10;;;;;;4963846;28;20050;-80
2023/12/21 01:34:51;;;;;;;2.15;1.15;;;11.10;32.70;;;;;;4948614;28;20422;-80
2023/12/21 01:37:18;;;;;;;1.55;1.10;;;11.10;39.20;;;;;;4932229;28;20050;-80
2023/12/21 01:39:45;;;;;;;4.28;1.50;;;11.10;21.60;;;;;;4948796;28;20586;-80
2023/12/21 01:42:12;;;;;;;3.35;1.13;;;11.20;21.50;;;;;;4964596;28;20055;-80
2023/12/21 01:44:40;;;;;;;1.85;0.52;;;11.20;11.20;;;;;;4948653;28;20059;-79
2023/12/21 01:47:06;;;;;;;0.77;0.50;;;11.20;7.90;;;;;;4947043;28;20144;-80
2023/12/21 01:49:33;;;;;;;1.67;0.60;;;11.20;1.00;;;;;;4964272;28;20105;-79
2023/12/21 01:52:00;;;;;;;1.17;0.70;;;11.30;1.00;;;;;;4948148;28;20055;-79
2023/12/21 01:54:27;;;;;;;1.20;0.70;;;11.30;1.00;;;;;;4948667;28;20137;-79
2023/12/21 01:56:54;;;;;;;1.35;0.70;;;11.30;1.00;;;;;;4963790;28;20154;-80
2023/12/21 01:59:21;;;;;;;2.53;0.60;;;11.30;1.00;;;;;;4948378;28;20116;-79
2023/12/21 02:01:48;;;;;;;2.15;0.70;;;11.30;1.00;;;;;;4947294;28;20152;-80
2023/12/21 02:04:15;;;;;;;1.75;0.70;;;11.40;1.00;;;;;;4964027;28;20065;-80
2023/12/21 02:06:42;;;;;;;1.30;0.63;;;11.40;1.00;;;;;;4963405;28;20047;-80
2023/12/21 02:09:09;;;;;;;1.80;0.98;;;11.40;1.00;;;;;;4964265;28;20051;-80
2023/12/21 02:11:36;;;;;;;1.42;0.60;;;11.40;1.00;;;;;;4963834;28;20075;-80
2023/12/21 02:14:03;;;;;;;1.70;0.82;;;11.40;1.00;;;;;;4948054;28;20047;-80
2023/12/21 02:16:35;;;;;;;1.05;0.60;;;11.40;1.00;;;;;;4946406;28;20054;-79
2023/12/21 02:19:03;;;;;;;0.87;0.50;;;11.50;1.00;;;;;;4947742;28;20337;-80
2023/12/21 02:21:30;;;;;;;1.90;0.88;;;11.50;99.90;;;;;;4947888;28;20121;-80
2023/12/21 02:23:57;;;;;;;2.75;0.70;;;11.50;99.90;;;;;;4932586;28;20125;-80
2023/12/21 02:26:24;;;;;;;1.33;0.65;;;11.50;99.90;;;;;;4934239;28;20570;-80
2023/12/21 02:28:51;;;;;;;0.95;0.52;;;11.60;99.90;;;;;;4952267;28;20046;-80
2023/12/21 02:31:18;;;;;;;1.40;0.57;;;11.60;99.90;;;;;;4952682;28;20052;-79
2023/12/21 02:33:46;;;;;;;0.77;0.40;;;11.60;99.90;;;;;;4951339;28;20061;-80
2023/12/21 02:36:13;;;;;;;1.15;0.60;;;11.60;99.90;;;;;;4936124;28;20047;-80
2023/12/21 02:38:40;;;;;;;0.80;0.47;;;11.60;99.90;;;;;;4967981;28;20054;-80
2023/12/21 02:41:07;;;;;;;0.68;0.40;;;11.60;99.90;;;;;;4968357;28;20055;-81
2023/12/21 02:43:33;;;;;;;1.10;0.60;;;11.70;99.90;;;;;;4967947;28;20054;-80
2023/12/21 02:46:00;;;;;;;1.50;0.50;;;11.70;99.90;;;;;;4968159;28;20059;-80
2023/12/21 02:48:27;;;;;;;0.63;0.50;;;11.70;99.90;;;;;;4966667;28;20055;-80
2023/12/21 02:50:54;;;;;;;1.65;0.60;;;11.70;99.90;;;;;;4968036;28;20051;-80
2023/12/21 02:53:22;;;;;;;1.30;0.43;;;11.70;99.90;;;;;;4967413;28;20094;-80
2023/12/21 02:55:49;;;;;;;2.05;0.90;;;11.70;99.90;;;;;;4952101;28;20062;-80
2023/12/21 02:58:16;;;;;;;1.40;0.60;;;11.70;99.90;;;;;;4951517;28;20051;-80
2023/12/21 03:00:43;;;;;;;0.60;0.50;;;11.70;99.90;;;;;;4951636;28;20055;-79
2023/12/21 03:03:10;;;;;;;2.15;0.90;;;11.70;99.90;;;;;;4966059;28;20073;-80
2023/12/21 03:05:36;;;;;;;0.47;0.47;;;11.70;99.90;;;;;;4967581;28;20666;-80
2023/12/21 03:08:04;;;;;;;0.63;0.60;;;11.70;99.90;;;;;;4967418;28;20051;-79
2023/12/21 03:10:31;;;;;;;0.98;0.50;;;11.60;99.90;;;;;;4967754;28;20445;-79
2023/12/21 03:12:58;;;;;;;1.15;0.52;;;11.70;99.90;;;;;;4951078;28;20050;-78
2023/12/21 03:15:25;;;;;;;0.50;0.40;;;11.60;99.90;;;;;;4969066;28;20082;-79
2023/12/21 03:17:52;;;;;;;2.47;0.50;;;11.70;99.90;;;;;;4934741;28;20050;-79
2023/12/21 03:20:19;;;;;;;1.50;0.60;;;11.70;99.90;;;;;;4959134;28;20154;-79
2023/12/21 03:22:46;;;;;;;0.95;0.50;;;11.70;99.90;;;;;;4954482;28;20082;-80
2023/12/21 03:25:13;;;;;;;0.73;0.40;;;11.70;99.90;;;;;;4957644;28;20091;-79
2023/12/21 03:27:40;;;;;;;0.73;0.47;;;11.80;99.90;;;;;;4960318;28;20411;-79
2023/12/21 03:30:07;;;;;;;0.73;0.38;;;11.70;99.90;;;;;;4932133;28;20055;-80
2023/12/21 03:32:36;;;;;;;0.60;0.30;;;11.80;99.90;;;;;;4934658;28;20057;-80
2023/12/21 03:35:04;;;;;;;0.30;0.30;;;11.80;99.90;;;;;;4950465;28;20054;-80
2023/12/21 03:37:31;;;;;;;0.90;0.47;;;11.80;99.90;;;;;;4965892;28;20054;-80
2023/12/21 03:39:59;;;;;;;0.50;0.35;;;11.80;99.90;;;;;;4967228;28;20560;-81
2023/12/21 03:42:26;;;;;;;0.52;0.43;;;11.80;99.90;;;;;;4950762;28;20057;-81
2023/12/21 03:44:52;;;;;;;0.43;0.40;;;11.80;99.90;;;;;;4953571;28;20403;-81
2023/12/21 03:47:19;;;;;;;0.88;0.40;;;11.80;99.90;;;;;;4967700;28;20125;-81
2023/12/21 03:49:46;;;;;;;0.50;0.35;;;11.80;99.90;;;;;;4952161;28;20132;-81
2023/12/21 03:52:13;;;;;;;0.80;0.50;;;11.80;99.90;;;;;;4969946;28;20137;-81
2023/12/21 03:54:40;;;;;;;2.35;0.50;;;11.80;99.90;;;;;;4987943;28;20423;-81
2023/12/21 03:57:08;;;;;;;2.70;0.60;;;11.80;99.90;;;;;;4987695;28;20061;-80
2023/12/21 03:59:35;;;;;;;0.45;0.40;;;11.80;99.90;;;;;;4987951;28;20217;-80
2023/12/21 04:02:04;;;;;;;0.30;0.30;;;11.80;99.90;;;;;;4986680;28;20081;-81
2023/12/21 04:04:32;;;;;;;1.50;0.47;;;11.80;99.90;;;;;;4952625;28;20061;-79
2023/12/21 04:06:59;;;;;;;0.73;0.50;;;11.80;99.90;;;;;;4968080;28;20046;-80
2023/12/21 04:09:26;;;;;;;1.35;0.50;;;11.80;99.90;;;;;;4952298;28;20049;-79
2023/12/21 04:11:53;;;;;;;3.40;0.70;;;11.80;99.90;;;;;;4952146;28;20537;-80
2023/12/21 04:14:20;;;;;;;0.40;0.40;;;11.80;99.90;;;;;;4969827;28;20058;-80
2023/12/21 04:16:48;;;;;;;0.93;0.50;;;11.80;99.90;;;;;;4967931;28;20472;-81
2023/12/21 04:19:15;;;;;;;1.23;0.60;;;11.80;99.90;;;;;;4951519;28;20050;-80
2023/12/21 04:21:43;;;;;;;1.40;0.85;;;11.80;99.90;;;;;;4967722;28;20060;-80
2023/12/21 04:24:10;;;;;;;1.67;0.70;;;11.80;99.90;;;;;;4969401;28;20046;-80
2023/12/21 04:26:37;;;;;;;0.60;0.40;;;11.80;99.90;;;;;;4951917;28;20109;-80
2023/12/21 04:29:04;;;;;;;1.23;0.50;;;11.80;99.90;;;;;;4936451;28;20043;-80
2023/12/21 04:31:31;;;;;;;1.83;0.65;;;11.80;99.90;;;;;;4966402;28;20110;-80
2023/12/21 04:33:58;;;;;;;1.88;0.40;;;11.80;99.90;;;;;;4951647;28;20061;-79
2023/12/21 04:36:27;;;;;;;1.00;0.60;;;11.80;99.90;;;;;;4967884;28;20055;-80
2023/12/21 04:38:55;;;;;;;2.13;0.60;;;11.80;99.90;;;;;;4967689;28;20638;-79
2023/12/21 04:41:22;;;;;;;1.70;0.60;;;11.80;99.90;;;;;;4969125;28;20117;-80
2023/12/21 04:43:49;;;;;;;1.13;0.52;;;11.80;99.90;;;;;;4968960;28;20058;-80
2023/12/21 04:46:17;;;;;;;1.25;0.50;;;11.80;99.90;;;;;;4951706;28;20479;-79
2023/12/21 04:48:44;;;;;;;0.95;0.50;;;11.80;99.90;;;;;;4949945;28;20431;-79
2023/12/21 04:51:17;;;;;;;1.25;0.68;;;11.80;99.90;;;;;;4969239;28;20058;-80
2023/12/21 04:53:44;;;;;;;1.40;1.00;;;11.70;99.90;;;;;;4967432;28;20047;-80
2023/12/21 04:56:11;;;;;;;2.20;0.70;;;11.70;99.90;;;;;;4951521;28;20055;-81
2023/12/21 04:58:38;;;;;;;1.40;0.60;;;11.70;99.90;;;;;;4968673;28;20106;-80
2023/12/21 05:01:06;;;;;;;1.05;0.50;;;11.70;99.90;;;;;;4967223;28;20142;-80
2023/12/21 05:03:33;;;;;;;1.10;0.60;;;11.70;99.90;;;;;;4933906;28;20074;-80
2023/12/21 05:06:01;;;;;;;1.95;0.60;;;11.70;99.90;;;;;;4967066;28;20050;-79
2023/12/21 05:08:28;;;;;;;1.52;0.65;;;11.70;99.90;;;;;;4967106;28;20126;-79
2023/12/21 05:10:55;;;;;;;1.38;0.50;;;11.60;99.90;;;;;;4968994;28;20081;-80
2023/12/21 05:13:22;;;;;;;0.52;0.40;;;11.60;99.90;;;;;;4967098;28;20090;-80
2023/12/21 05:15:48;;;;;;;1.70;0.60;;;11.60;99.90;;;;;;4951652;28;20054;-80
2023/12/21 05:18:16;;;;;;;1.20;0.60;;;11.60;99.90;;;;;;4965715;28;20058;-80
2023/12/21 05:20:43;;;;;;;2.53;0.80;;;11.60;99.90;;;;;;4950895;28;20054;-80
2023/12/21 05:23:10;;;;;;;1.42;0.60;;;11.60;99.90;;;;;;4966613;28;20054;-80
2023/12/21 05:25:37;;;;;;;0.85;0.50;;;11.60;99.90;;;;;;4951115;28;20137;-80
2023/12/21 05:28:04;;;;;;;1.02;0.60;;;11.60;99.90;;;;;;4968188;28;20755;-80
2023/12/21 05:30:31;;;;;;;1.27;0.50;;;11.60;99.90;;;;;;4968574;28;20145;-81
2023/12/21 05:32:58;;;;;;;0.80;0.65;;;11.60;99.90;;;;;;4966480;28;20106;-80
2023/12/21 05:35:25;;;;;;;1.70;0.50;;;11.60;99.90;;;;;;4966418;28;20129;-80
2023/12/21 05:37:52;;;;;;;1.30;0.75;;;11.60;99.90;;;;;;4967027;28;20058;-80
2023/12/21 05:40:19;;;;;;;1.35;0.47;;;11.70;99.90;;;;;;4967462;28;20050;-80
2023/12/21 05:42:46;;;;;;;2.20;0.80;;;11.70;99.90;;;;;;4966859;28;20078;-80
2023/12/21 05:45:14;;;;;;;1.02;0.40;;;11.60;99.90;;;;;;4951138;28;20051;-80
2023/12/21 05:47:41;;;;;;;1.65;0.60;;;11.70;99.90;;;;;;4965378;28;20054;-80
2023/12/21 05:50:08;;;;;;;1.02;0.50;;;11.70;99.90;;;;;;4960017;28;20531;-80
2023/12/21 05:52:36;;;;;;;1.42;0.50;;;11.70;99.90;;;;;;4955490;28;20047;-79
2023/12/21 05:55:04;;;;;;;0.38;0.35;;;11.70;99.90;;;;;;4944680;28;20047;-80
2023/12/21 05:57:30;;;;;;;0.77;0.47;;;11.70;99.90;;;;;;4948212;28;20133;-80
2023/12/21 05:59:57;;;;;;;1.13;0.50;;;11.70;99.90;;;;;;4932542;28;20054;-80
2023/12/21 06:02:24;;;;;;;0.50;0.40;;;11.70;99.90;;;;;;4942964;28;20051;-80
2023/12/21 06:04:51;;;;;;;1.08;0.47;;;11.70;99.90;;;;;;4926916;28;20051;-80
2023/12/21 06:07:19;;;;;;;1.70;0.80;;;11.70;99.90;;;;;;4958240;28;20054;-80
2023/12/21 06:09:45;;;;;;;1.25;0.60;;;11.70;99.90;;;;;;4947349;28;20133;-80
2023/12/21 06:12:12;;;;;;;1.75;0.60;;;11.70;99.90;;;;;;4964873;28;20070;-79
2023/12/21 06:14:39;;;;;;;2.10;0.70;;;11.70;99.90;;;;;;4963835;28;20109;-80
2023/12/21 06:17:06;;;;;;;0.50;0.50;;;11.70;99.90;;;;;;4963774;28;20050;-79
2023/12/21 06:19:33;;;;;;;1.52;0.52;;;11.70;99.90;;;;;;4964417;28;20054;-80
2023/12/21 06:22:00;;;;;;;1.25;0.60;;;11.70;99.90;;;;;;4963415;28;20257;-79
2023/12/21 06:24:27;;;;;;;0.40;0.40;;;11.70;99.90;;;;;;4961088;28;20075;-80
2023/12/21 06:26:54;;;;;;;0.80;0.40;;;11.70;99.90;;;;;;4943658;28;20055;-80
2023/12/21 06:29:21;;;;;;;1.02;0.50;;;11.60;99.90;;;;;;4959917;28;20070;-80
2023/12/21 06:31:48;;;;;;;1.35;0.63;;;11.70;99.90;;;;;;4945414;28;20129;-80
2023/12/21 06:34:15;;;;;;;0.50;0.22;;;11.60;99.90;;;;;;4964934;28;20055;-79
2023/12/21 06:36:43;;;;;;;0.40;0.40;;;11.60;99.90;;;;;;4961386;28;20193;-79
2023/12/21 06:39:11;;;;;;;1.50;0.50;;;11.60;99.90;;;;;;4948950;28;20051;-79
2023/12/21 06:41:37;;;;;;;1.70;0.70;;;11.60;99.90;;;;;;4959776;28;20527;-79
2023/12/21 06:44:04;;;;;;;1.08;0.50;;;11.60;99.90;;;;;;4959496;28;20050;-79
2023/12/21 06:46:31;;;;;;;1.10;0.50;;;11.70;99.90;;;;;;4958243;28;20070;-79
2023/12/21 06:48:58;;;;;;;0.55;0.40;;;11.70;99.90;;;;;;4946520;28;20924;-79
2023/12/21 06:51:25;;;;;;;2.80;0.65;;;11.70;99.90;;;;;;4962874;28;20061;-80
2023/12/21 06:53:53;;;;;;;1.58;0.60;;;11.70;99.90;;;;;;4947285;28;20043;-79
2023/12/21 06:56:20;;;;;;;0.93;0.38;;;11.70;99.90;;;;;;4947676;28;20062;-80
2023/12/21 06:59:00;;;;;;;1.42;0.40;;;11.80;99.90;;;;;;4963242;28;20049;-79
2023/12/21 07:01:27;;;;;;;1.50;0.60;;;11.80;99.90;;;;;;4960368;28;20113;-78
2023/12/21 07:03:55;;;;;;;1.02;0.63;;;11.90;99.90;;;;;;4944388;28;20625;-80
2023/12/21 07:06:22;;;;;;;2.78;0.70;;;11.90;99.90;;;;;;4960672;28;20063;-79
2023/12/21 07:08:49;;;;;;;0.75;0.50;;;11.90;99.90;;;;;;4959312;28;20121;-80
2023/12/21 07:11:17;;;;;;;1.83;0.65;;;11.90;99.90;;;;;;4965992;28;20546;-83
2023/12/21 07:13:44;;;;;;;1.95;0.68;;;11.90;99.90;;;;;;4953603;28;20050;-81
2023/12/21 07:16:12;;;;;;;0.88;0.40;;;11.90;99.90;;;;;;4969122;28;20058;-83
2023/12/21 07:18:41;;;;;;;2.33;0.60;;;12.00;99.90;;;;;;4970020;28;20058;-83
2023/12/21 07:21:08;;;;;;;1.42;0.68;;;12.00;99.90;;;;;;4970660;28;20565;-83
2023/12/21 07:23:35;;;;;;;1.98;0.63;;;12.00;99.90;;;;;;4961455;28;20077;-82
2023/12/21 07:26:03;;;;;;;1.75;0.60;;;12.00;99.90;;;;;;4985895;28;20087;-83
2023/12/21 07:28:31;;;;;;;1.58;0.70;;;12.00;99.90;;;;;;4984457;28;20069;-83
2023/12/21 07:30:59;;;;;;;1.40;0.60;;;12.00;99.90;;;;;;4968978;28;20050;-84
2023/12/21 07:33:28;;;;;;;3.35;1.20;;;12.00;99.90;;;;;;4973264;28;20154;-82
2023/12/21 07:35:56;;;;;;;2.05;0.60;;;12.10;99.90;;;;;;4969713;28;20062;-85
2023/12/21 07:38:23;;;;;;;1.15;0.60;;;12.20;99.90;;;;;;4969698;28;20054;-84
2023/12/21 07:40:51;;;;;;;2.38;0.63;;;12.30;99.90;;;;;;4970281;28;20051;-84
2023/12/21 07:43:19;;;;;;;0.95;0.60;;;12.30;99.90;;;;;;4967677;28;20062;-82
2023/12/21 07:45:46;;;;;;;1.27;0.68;;;12.40;99.90;;;;;;4951646;28;20113;-81
2023/12/21 07:48:12;;;;;;;2.03;0.82;;;12.40;99.90;;;;;;4966125;28;20066;-84
2023/12/21 07:50:39;;;;;;;1.83;0.82;;;12.40;99.90;;;;;;4968899;28;20058;-83
2023/12/21 07:53:07;;;;;;;1.63;0.90;;;12.40;99.90;;;;;;4949217;28;20043;-82
2023/12/21 07:55:34;;;;;;;1.65;0.70;;;12.50;99.90;;;;;;4949977;28;20450;-85
2023/12/21 07:58:02;;;;;;;2.05;0.70;;;12.50;99.90;;;;;;4969538;28;20086;-85
2023/12/21 08:00:29;;;;;;;3.60;1.23;;;12.50;99.90;;;;;;4967734;28;20063;-83
2023/12/21 08:02:55;;;;;;;2.47;0.77;;;12.50;99.90;;;;;;4964931;28;20082;-84
2023/12/21 08:05:23;;;;;;;3.03;0.95;;;12.60;99.90;;;;;;4949278;28;20398;-84
2023/12/21 08:07:51;;;;;;;2.47;0.70;;;12.60;99.90;;;;;;4966733;28;20080;-83
2023/12/21 08:10:18;;;;;;;3.78;1.33;;;12.60;99.90;;;;;;4949474;28;20054;-85
2023/12/21 08:12:46;;;;;;;2.15;0.80;;;12.60;99.90;;;;;;4955384;28;20057;-82
2023/12/21 08:15:14;;;;;;;2.13;0.90;;;12.60;99.90;;;;;;4949370;28;20154;-84
2023/12/21 08:17:43;;;;;;;1.55;0.60;;;12.60;99.90;;;;;;4967386;28;20054;-83
2023/12/21 08:20:15;;;;;;;2.85;0.90;;;12.60;99.90;;;;;;4967918;28;20472;-85
2023/12/21 08:22:43;;;;;;;3.72;1.05;;;12.60;99.90;;;;;;4952675;28;20078;-83
2023/12/21 08:25:11;;;;;;;2.45;0.75;;;12.60;99.90;;;;;;4968190;28;20073;-84
2023/12/21 08:27:42;;;;;;;1.65;0.82;;;12.50;99.90;;;;;;4967935;28;20418;-83
2023/12/21 08:30:10;;;;;;;3.13;1.10;;;12.50;99.90;;;;;;4972870;28;20047;-80
2023/12/21 08:32:39;;;;;;;2.45;1.05;;;12.50;99.90;;;;;;4975188;28;20063;-83
2023/12/21 08:35:06;;;;;;;1.58;0.70;;;12.40;99.90;;;;;;4964639;28;20494;-83
2023/12/21 08:37:33;;;;;;;1.45;1.00;;;12.40;1.00;;;;;;4973774;28;20058;-82
2023/12/21 08:40:00;;;;;;;1.95;0.63;;;12.30;1.00;;;;;;4948246;28;20064;-83
2023/12/21 08:42:28;;;;;;;1.92;0.82;;;12.30;1.00;;;;;;4929892;28;20525;-84
2023/12/21 08:44:58;;;;;;;1.35;0.55;;;12.30;1.00;;;;;;4971299;28;20047;-81
2023/12/21 08:47:27;;;;;;;3.35;1.23;;;12.30;1.00;;;;;;4934184;28;20074;-83
2023/12/21 08:49:55;;;;;;;1.75;0.68;;;12.40;1.00;;;;;;4965670;28;20066;-83
2023/12/21 08:52:22;;;;;;;2.40;0.73;;;12.40;1.00;;;;;;4967824;28;20143;-83
2023/12/21 08:54:50;;;;;;;1.80;0.77;;;12.40;1.00;;;;;;4968513;28;20054;-82
2023/12/21 08:57:21;;;;;;;2.20;0.80;;;12.40;1.00;;;;;;4967879;28;20042;-84
2023/12/21 08:59:48;;;;;;;1.67;0.80;;;12.50;1.00;;;;;;4985221;28;20149;-85
2023/12/21 09:02:17;;;;;;;1.88;0.80;;;12.50;1.00;;;;;;4966276;28;20576;-84
2023/12/21 09:04:45;;;;;;;13.23;3.83;;;12.40;1.00;;;;;;4977186;28;20642;-83
2023/12/21 09:07:17;;;;;;;2.75;1.67;;;12.50;1.00;;;;;;4973810;28;20057;-84
2023/12/21 09:09:44;;;;;;;3.63;1.42;;;12.40;1.00;;;;;;4967326;28;20053;-84
2023/12/21 09:12:12;;;;;;;2.00;0.65;;;12.50;1.00;;;;;;4976965;28;20042;-82
2023/12/21 09:14:39;;;;;;;2.13;0.90;;;12.40;1.00;;;;;;4967396;28;20079;-83
2023/12/21 09:17:07;;;;;;;4.82;1.10;;;12.50;1.00;;;;;;4966119;28;20402;-83
2023/12/21 09:19:34;;;;;;;0.90;0.57;;;12.50;1.00;;;;;;4967730;28;20050;-83
2023/12/21 09:22:01;;;;;;;1.98;0.77;;;12.50;1.00;;;;;;4967819;28;20151;-85
2023/12/21 09:24:29;;;;;;;1.73;0.75;;;12.50;1.00;;;;;;4961059;28;20046;-83
2023/12/21 09:26:56;;;;;;;2.90;1.10;;;12.60;1.00;;;;;;4960588;28;20124;-83
2023/12/21 09:29:24;;;;;;;2.38;0.73;;;12.50;99.90;;;;;;4960202;28;20051;-83
2023/12/21 09:31:55;;;;;;;1.95;0.75;;;12.60;99.90;;;;;;4938669;28;20069;-82
2023/12/21 09:34:22;;;;;;;1.50;0.70;;;12.50;99.90;;;;;;4926947;28;20501;-82
2023/12/21 09:36:53;;;;;;;1.75;0.80;;;12.60;1.00;;;;;;4947014;28;20070;-82
2023/12/21 09:39:20;;;;;;;2.10;0.80;;;12.60;99.90;;;;;;4958701;28;20058;-83
2023/12/21 09:41:46;;;;;;;2.10;0.82;;;12.60;99.90;;;;;;4949393;28;20110;-84
2023/12/21 09:44:28;;;;;;;1.33;0.70;;;12.60;99.90;;;;;;4959938;28;20458;-84
2023/12/21 09:46:56;;;;;;;1.75;0.82;;;12.60;99.90;;;;;;4928321;28;20102;-84
2023/12/21 09:49:23;;;;;;;1.48;0.90;;;12.60;99.90;;;;;;4960791;28;20152;-84
2023/12/21 09:51:51;;;;;;;1.80;0.80;;;12.60;1.00;;;;;;4960253;28;20483;-84
2023/12/21 09:54:19;;;;;;;1.38;0.60;;;12.50;1.00;;;;;;4950331;28;20510;-83
2023/12/21 09:56:47;;;;;;;0.95;0.60;;;12.50;1.00;;;;;;4961189;28;20152;-84
2023/12/21 09:59:16;;;;;;;2.47;0.70;;;12.40;1.00;;;;;;4945081;28;20047;-83
2023/12/21 10:01:43;;;;;;;2.00;0.60;;;12.30;99.90;;;;;;4960494;28;20655;-82
2023/12/21 10:04:13;;;;;;;2.70;0.60;;;12.20;99.90;;;;;;4961568;28;20054;-84
2023/12/21 10:06:40;;;;;;;1.63;0.85;;;12.20;78.10;;;;;;4960778;28;20109;-83
2023/12/21 10:09:08;;;;;;;2.33;1.00;;;12.10;99.90;;;;;;4945806;28;20046;-82
2023/12/21 10:11:36;;;;;;;1.45;0.85;;;12.00;1.00;;;;;;4944585;28;20426;-82
2023/12/21 10:14:04;;;;;;;3.40;0.88;;;12.00;99.90;;;;;;4961481;28;20059;-84
2023/12/21 10:16:31;;;;;;;1.58;0.88;;;11.90;42.10;;;;;;4928079;29;20083;-83
2023/12/21 10:18:58;;;;;;;2.35;0.80;;;12.00;99.90;;;;;;4944407;28;20061;-84
2023/12/21 10:21:25;;;;;;;1.85;0.93;;;11.90;99.90;;;;;;4961900;28;20439;-83
2023/12/21 10:23:52;;;;;;;2.30;1.63;;;11.90;99.90;;;;;;4960992;28;20062;-82
2023/12/21 10:26:19;;;;;;;1.48;0.80;;;12.00;99.90;;;;;;4961394;28;20054;-80
2023/12/21 10:28:48;;;;;;;1.02;0.60;;;12.00;1.00;;;;;;4960805;28;20524;-83
2023/12/21 10:31:16;;;;;;;1.58;0.93;;;12.00;1.00;;;;;;4954691;28;20210;-82
2023/12/21 10:33:43;;;;;;;1.48;0.90;;;12.10;99.90;;;;;;4943472;28;20507;-84
2023/12/21 10:36:10;;;;;;;2.88;0.80;;;12.10;1.00;;;;;;4945023;28;20074;-83
2023/12/21 10:38:38;;;;;;;3.42;0.80;;;12.20;99.90;;;;;;4961615;28;20058;-85
2023/12/21 10:41:05;;;;;;;0.98;0.60;;;12.20;14.10;;;;;;4961244;28;20064;-85
2023/12/21 10:43:34;;;;;;;1.50;0.70;;;12.20;1.00;;;;;;4950442;28;20054;-84
2023/12/21 10:46:03;;;;;;;2.15;0.60;;;12.30;99.90;;;;;;4959470;28;20047;-84
2023/12/21 10:48:32;;;;;;;1.63;0.68;;;12.30;99.90;;;;;;4965575;28;20088;-85
2023/12/21 10:50:59;;;;;;;0.90;0.50;;;12.40;99.90;;;;;;4967445;28;20046;-85
2023/12/21 10:53:26;;;;;;;1.30;0.60;;;12.40;94.40;;;;;;4948367;28;20165;-84
2023/12/21 10:55:54;;;;;;;1.75;0.80;;;12.40;6.20;;;;;;4933371;28;20057;-83
2023/12/21 10:58:25;;;;;;;1.92;1.13;;;12.50;1.00;;;;;;4950909;28;20158;-85
2023/12/21 11:00:54;;;;;;;1.10;0.60;;;12.50;1.00;;;;;;4968096;28;20054;-86
2023/12/21 11:03:22;;;;;;;1.35;0.70;;;12.50;1.00;;;;;;4950536;28;20506;-87
2023/12/21 11:05:49;;;;;;;1.05;0.50;;;12.60;1.00;;;;;;4951241;28;20422;-86
2023/12/21 11:08:18;;;;;;;1.35;0.52;;;12.70;1.00;;;;;;4949679;28;20747;-85
2023/12/21 11:10:45;;;;;;;1.25;0.70;;;12.70;99.90;;;;;;4951054;28;20189;-86
2023/12/21 11:13:13;;;;;;;2.67;0.73;;;12.80;99.90;;;;;;4934974;28;20051;-86
2023/12/21 11:15:40;;;;;;;0.93;0.65;;;12.80;99.90;;;;;;4934772;28;20097;-84
2023/12/21 11:18:15;;;;;;;1.50;0.90;;;12.80;99.90;;;;;;4948596;28;20050;-86
2023/12/21 11:20:45;;;;;;;0.82;0.50;;;12.80;99.90;;;;;;4930623;29;20784;-84
2023/12/21 11:23:16;;;;;;;1.55;0.60;;;12.80;99.90;;;;;;4959812;28;20054;-84
2023/12/21 11:25:43;;;;;;;2.78;0.73;;;12.80;99.90;;;;;;4948281;28;20070;-84
2023/12/21 11:28:12;;;;;;;1.55;0.68;;;12.80;99.90;;;;;;4946807;28;20443;-84
2023/12/21 11:30:39;;;;;;;0.43;0.40;;;12.80;99.90;;;;;;4959405;28;20160;-84
2023/12/21 11:33:07;;;;;;;0.57;0.50;;;12.90;99.90;;;;;;4968054;28;20118;-86
2023/12/21 11:35:35;;;;;;;1.98;1.08;;;12.90;99.90;;;;;;4931401;29;20166;-85
2023/12/21 11:38:05;;;;;;;1.67;0.77;;;13.10;99.90;;;;;;4942580;28;20059;-88
2023/12/21 11:40:34;;;;;;;1.50;0.60;;;13.20;99.90;;;;;;4951722;28;20058;-85
2023/12/21 11:43:02;;;;;;;1.48;0.60;;;13.30;99.90;;;;;;4933178;28;20058;-87
2023/12/21 11:45:31;;;;;;;0.85;0.45;;;13.30;99.90;;;;;;4965958;28;20051;-86
2023/12/21 11:48:03;;;;;;;2.28;0.80;;;13.40;99.90;;;;;;4949491;28;20821;-85
2023/12/21 11:50:33;;;;;;;1.75;0.57;;;13.40;99.90;;;;;;4959595;28;20046;-84
2023/12/21 11:53:10;;;;;;;0.85;0.45;;;13.40;99.90;;;;;;4964169;28;20050;-87
2023/12/21 11:55:43;;;;;;;1.15;0.63;;;13.40;99.90;;;;;;4932112;28;20050;-86
2023/12/21 11:58:21;;;;;;;1.02;0.50;;;13.40;99.90;;;;;;4934580;28;20055;-82
2023/12/21 12:00:50;;;;;;;1.60;0.60;;;13.40;99.90;;;;;;4933892;28;20047;-83
2023/12/21 12:03:17;;;;;;;1.00;0.60;;;13.50;99.90;;;;;;4962905;28;20472;-85
2023/12/21 12:05:45;;;;;;;1.17;0.57;;;13.50;99.90;;;;;;4951569;28;20065;-86
2023/12/21 12:08:12;;;;;;;1.23;0.55;;;13.60;99.90;;;;;;4951192;28;20487;-84
2023/12/21 12:10:39;;;;;;;0.63;0.43;;;13.60;99.90;;;;;;4951335;28;20050;-83
2023/12/21 12:13:07;;;;;;;1.38;0.50;;;13.60;99.90;;;;;;4964891;28;20062;-85
2023/12/21 12:15:35;;;;;;;1.33;0.70;;;13.70;99.90;;;;;;4965696;28;20051;-84
2023/12/21 12:18:07;;;;;;;2.15;0.77;;;13.80;99.90;;;;;;4932161;28;20569;-84
2023/12/21 12:20:44;;;;;;;2.50;0.77;;;13.90;99.90;;;;;;4966170;28;20057;-86
2023/12/21 12:23:12;;;;;;;1.42;0.70;;;13.90;99.90;;;;;;4947618;28;20051;-83
2023/12/21 12:25:39;;;;;;;1.23;0.68;;;14.00;99.90;;;;;;4967642;28;20433;-85
2023/12/21 12:28:14;;;;;;;0.88;0.57;;;14.10;99.90;;;;;;4937270;28;20074;-84
2023/12/21 12:30:42;;;;;;;0.43;0.40;;;14.20;99.90;;;;;;4947555;28;20054;-86
2023/12/21 12:33:11;;;;;;;1.20;0.88;;;14.20;99.90;;;;;;4946998;28;20054;-85
2023/12/21 12:35:42;;;;;;;1.10;0.80;;;14.10;99.90;;;;;;4946607;28;20058;-83
2023/12/21 12:38:09;;;;;;;1.45;0.70;;;14.10;99.90;;;;;;4965018;28;20061;-85
2023/12/21 12:40:36;;;;;;;2.78;1.02;;;14.10;99.90;;;;;;4964602;28;20058;-85
2023/12/21 12:43:04;;;;;;;1.27;0.52;;;14.00;99.90;;;;;;4965250;28;20541;-86
2023/12/21 12:45:34;;;;;;;1.83;0.73;;;13.90;99.90;;;;;;4964154;28;20053;-83
2023/12/21 12:48:02;;;;;;;1.33;0.80;;;13.80;99.90;;;;;;4962711;28;20113;-82
2023/12/21 12:50:31;;;;;;;2.92;0.80;;;13.70;99.90;;;;;;4963427;28;20059;-86